Kezdőlap
METAR-TAF:

METAR-TAF

Repülőterek :

Kimmirut, Nunavut, Kanada

földrajzi szélesség: 62-51N, földrajzi hosszúság: 069-53W, magasság: 53 m

Jelenlegi meteorológiai megfigyelések

A jelentés 40 perccel ezelõtt készült, 17:00 UTC
Észak-északnyugati szél 13 kt, északnyugati és észak-északkeleti között változik
Hőmérséklet 13°C
Páratartalom 67%
Légköri nyomás 1020 hPa
Látótávolság: 24.1 km
Szórványos felhőzet 3400 lábon
Szakadozott felhőzet 4100 lábon
Szakadozott felhőzet 8000 lábon

METAR: CYLC 131700Z 33013KT 320V020 15SM SCT034 BKN041 BKN080 13/07 A3011 RMK SC3SC2AC1 SLP200

Idő: 13:40 (17:40 UTC)


TAF: hiányzik

Meteorológiai megfigyelések és előrejelzések több, mint 4000 repülőtéren (METAR és TAF jelentéseket).

A térképen piros és sárga pontok jelzik az elérhető meteorológiai állomásokat.

Mozgassa az egeret a pont fölött, hogy megjelenjen az állomás neve.

Azután kattintson az időjárási megfigyelések és előrejelzések megtekintéséhez.

A térkép megváltoztatása: kattintson a fekete keresztel jelölt zöld gombra ráközelítéshez, a vonallal jelölt zöld gombra távolításhoz, vagy a zöld nyilakra a szomszédos térképek eléréséhez.


METAR-TAF: